sensor_id;sensor_type;location;lat;lon;timestamp;P1;durP1;ratioP1;P2;durP2;ratioP2
49241;SDS011;35079;52.704;13.814;2023-04-09T00:01:06;44.60;;;28.20;;
49241;SDS011;35079;52.704;13.814;2023-04-09T00:03:33;42.80;;;27.45;;
49241;SDS011;35079;52.704;13.814;2023-04-09T00:05:59;40.08;;;25.17;;
49241;SDS011;35079;52.704;13.814;2023-04-09T00:08:25;45.35;;;27.10;;
49241;SDS011;35079;52.704;13.814;2023-04-09T00:10:51;44.08;;;26.50;;
49241;SDS011;35079;52.704;13.814;2023-04-09T00:13:17;42.38;;;26.58;;
49241;SDS011;35079;52.704;13.814;2023-04-09T00:15:43;42.28;;;26.50;;
49241;SDS011;35079;52.704;13.814;2023-04-09T00:18:10;40.47;;;26.70;;
49241;SDS011;35079;52.704;13.814;2023-04-09T00:20:36;41.85;;;27.17;;
49241;SDS011;35079;52.704;13.814;2023-04-09T00:23:02;41.03;;;26.13;;
49241;SDS011;35079;52.704;13.814;2023-04-09T00:25:27;42.13;;;26.38;;
49241;SDS011;35079;52.704;13.814;2023-04-09T00:27:53;40.60;;;25.55;;
49241;SDS011;35079;52.704;13.814;2023-04-09T00:30:20;44.22;;;26.05;;
49241;SDS011;35079;52.704;13.814;2023-04-09T00:32:45;38.67;;;24.08;;
49241;SDS011;35079;52.704;13.814;2023-04-09T00:35:11;41.92;;;26.30;;
49241;SDS011;35079;52.704;13.814;2023-04-09T00:37:37;40.75;;;25.38;;
49241;SDS011;35079;52.704;13.814;2023-04-09T00:40:03;41.40;;;24.35;;
49241;SDS011;35079;52.704;13.814;2023-04-09T00:42:32;42.80;;;25.52;;
49241;SDS011;35079;52.704;13.814;2023-04-09T00:44:59;41.05;;;25.02;;
49241;SDS011;35079;52.704;13.814;2023-04-09T00:47:25;42.22;;;25.38;;
49241;SDS011;35079;52.704;13.814;2023-04-09T00:49:52;40.60;;;24.83;;
49241;SDS011;35079;52.704;13.814;2023-04-09T00:52:18;43.45;;;24.92;;
49241;SDS011;35079;52.704;13.814;2023-04-09T00:54:45;42.95;;;26.05;;
49241;SDS011;35079;52.704;13.814;2023-04-09T00:57:12;44.55;;;26.50;;
49241;SDS011;35079;52.704;13.814;2023-04-09T00:59:38;46.30;;;27.20;;
49241;SDS011;35079;52.704;13.814;2023-04-09T01:02:04;42.70;;;26.25;;
49241;SDS011;35079;52.704;13.814;2023-04-09T01:04:30;45.03;;;27.23;;
49241;SDS011;35079;52.704;13.814;2023-04-09T01:07:41;44.80;;;27.10;;
49241;SDS011;35079;52.704;13.814;2023-04-09T01:09:59;39.58;;;24.45;;
49241;SDS011;35079;52.704;13.814;2023-04-09T01:15:43;42.40;;;25.00;;
49241;SDS011;35079;52.704;13.814;2023-04-09T01:18:23;42.92;;;25.77;;
49241;SDS011;35079;52.704;13.814;2023-04-09T01:21:01;44.35;;;26.00;;
49241;SDS011;35079;52.704;13.814;2023-04-09T01:23:36;40.53;;;24.98;;
49241;SDS011;35079;52.704;13.814;2023-04-09T01:29:28;44.72;;;26.60;;
49241;SDS011;35079;52.704;13.814;2023-04-09T01:31:57;50.63;;;27.90;;
49241;SDS011;35079;52.704;13.814;2023-04-09T01:34:24;43.22;;;26.02;;
49241;SDS011;35079;52.704;13.814;2023-04-09T01:36:52;44.70;;;26.80;;
49241;SDS011;35079;52.704;13.814;2023-04-09T01:39:20;48.65;;;28.58;;
49241;SDS011;35079;52.704;13.814;2023-04-09T01:41:47;44.13;;;26.00;;
49241;SDS011;35079;52.704;13.814;2023-04-09T01:44:14;45.50;;;26.40;;
49241;SDS011;35079;52.704;13.814;2023-04-09T01:46:41;43.33;;;26.27;;
49241;SDS011;35079;52.704;13.814;2023-04-09T01:49:08;46.20;;;27.65;;
49241;SDS011;35079;52.704;13.814;2023-04-09T01:51:35;47.85;;;27.88;;
49241;SDS011;35079;52.704;13.814;2023-04-09T01:54:01;48.30;;;28.25;;
49241;SDS011;35079;52.704;13.814;2023-04-09T01:56:38;51.13;;;26.58;;
49241;SDS011;35079;52.704;13.814;2023-04-09T01:59:07;47.80;;;27.33;;
49241;SDS011;35079;52.704;13.814;2023-04-09T02:01:37;40.90;;;26.52;;
49241;SDS011;35079;52.704;13.814;2023-04-09T02:04:36;49.42;;;28.25;;
49241;SDS011;35079;52.704;13.814;2023-04-09T02:07:10;64.18;;;31.58;;
49241;SDS011;35079;52.704;13.814;2023-04-09T02:09:40;135.95;;;31.23;;
49241;SDS011;35079;52.704;13.814;2023-04-09T02:12:09;66.78;;;32.08;;
49241;SDS011;35079;52.704;13.814;2023-04-09T02:14:37;59.55;;;28.05;;
49241;SDS011;35079;52.704;13.814;2023-04-09T02:17:05;69.53;;;30.17;;
49241;SDS011;35079;52.704;13.814;2023-04-09T02:19:49;73.65;;;29.88;;
49241;SDS011;35079;52.704;13.814;2023-04-09T02:22:15;78.13;;;32.40;;
49241;SDS011;35079;52.704;13.814;2023-04-09T02:24:41;66.00;;;32.08;;
49241;SDS011;35079;52.704;13.814;2023-04-09T02:27:07;81.60;;;34.83;;
49241;SDS011;35079;52.704;13.814;2023-04-09T02:29:33;70.43;;;32.30;;
49241;SDS011;35079;52.704;13.814;2023-04-09T02:31:59;75.38;;;32.72;;
49241;SDS011;35079;52.704;13.814;2023-04-09T02:34:24;67.82;;;33.83;;
49241;SDS011;35079;52.704;13.814;2023-04-09T02:36:50;84.95;;;35.08;;
49241;SDS011;35079;52.704;13.814;2023-04-09T02:39:16;69.45;;;32.47;;
49241;SDS011;35079;52.704;13.814;2023-04-09T02:41:41;73.45;;;33.47;;
49241;SDS011;35079;52.704;13.814;2023-04-09T02:44:07;76.50;;;33.33;;
49241;SDS011;35079;52.704;13.814;2023-04-09T02:46:33;85.22;;;33.38;;
49241;SDS011;35079;52.704;13.814;2023-04-09T02:48:59;119.85;;;32.88;;
49241;SDS011;35079;52.704;13.814;2023-04-09T02:51:24;88.57;;;35.55;;
49241;SDS011;35079;52.704;13.814;2023-04-09T02:53:51;79.07;;;34.47;;
49241;SDS011;35079;52.704;13.814;2023-04-09T02:56:17;78.72;;;34.53;;
49241;SDS011;35079;52.704;13.814;2023-04-09T02:58:42;74.38;;;34.20;;
49241;SDS011;35079;52.704;13.814;2023-04-09T03:01:08;86.57;;;35.35;;
49241;SDS011;35079;52.704;13.814;2023-04-09T03:03:33;74.07;;;33.40;;
49241;SDS011;35079;52.704;13.814;2023-04-09T03:05:59;76.53;;;33.83;;
49241;SDS011;35079;52.704;13.814;2023-04-09T03:08:25;99.85;;;34.13;;
49241;SDS011;35079;52.704;13.814;2023-04-09T03:10:50;113.72;;;34.95;;
49241;SDS011;35079;52.704;13.814;2023-04-09T03:13:16;165.32;;;35.05;;
49241;SDS011;35079;52.704;13.814;2023-04-09T03:15:41;99.53;;;33.80;;
49241;SDS011;35079;52.704;13.814;2023-04-09T03:18:07;195.15;;;36.17;;
49241;SDS011;35079;52.704;13.814;2023-04-09T03:20:32;91.47;;;33.88;;
49241;SDS011;35079;52.704;13.814;2023-04-09T03:23:02;91.30;;;36.30;;
49241;SDS011;35079;52.704;13.814;2023-04-09T03:25:28;82.10;;;34.97;;
49241;SDS011;35079;52.704;13.814;2023-04-09T03:27:53;97.18;;;35.38;;
49241;SDS011;35079;52.704;13.814;2023-04-09T03:30:19;79.82;;;35.28;;
49241;SDS011;35079;52.704;13.814;2023-04-09T03:32:45;97.45;;;35.30;;
49241;SDS011;35079;52.704;13.814;2023-04-09T03:35:10;154.85;;;34.53;;
49241;SDS011;35079;52.704;13.814;2023-04-09T03:37:36;149.10;;;33.22;;
49241;SDS011;35079;52.704;13.814;2023-04-09T03:40:01;121.03;;;35.28;;
49241;SDS011;35079;52.704;13.814;2023-04-09T03:42:27;116.65;;;33.72;;
49241;SDS011;35079;52.704;13.814;2023-04-09T03:44:53;203.32;;;35.03;;
49241;SDS011;35079;52.704;13.814;2023-04-09T03:47:19;117.75;;;33.47;;
49241;SDS011;35079;52.704;13.814;2023-04-09T03:49:44;224.52;;;37.72;;
49241;SDS011;35079;52.704;13.814;2023-04-09T03:52:10;81.55;;;32.90;;
49241;SDS011;35079;52.704;13.814;2023-04-09T03:54:35;97.35;;;32.72;;
49241;SDS011;35079;52.704;13.814;2023-04-09T03:57:01;79.88;;;33.47;;
49241;SDS011;35079;52.704;13.814;2023-04-09T03:59:28;138.90;;;35.30;;
49241;SDS011;35079;52.704;13.814;2023-04-09T04:01:53;157.23;;;35.53;;
49241;SDS011;35079;52.704;13.814;2023-04-09T04:04:19;129.00;;;34.25;;
49241;SDS011;35079;52.704;13.814;2023-04-09T04:06:45;141.82;;;33.40;;
49241;SDS011;35079;52.704;13.814;2023-04-09T04:09:10;211.23;;;39.33;;
49241;SDS011;35079;52.704;13.814;2023-04-09T04:11:36;370.27;;;41.70;;
49241;SDS011;35079;52.704;13.814;2023-04-09T04:14:01;122.88;;;36.30;;
49241;SDS011;35079;52.704;13.814;2023-04-09T04:16:27;183.50;;;35.70;;
49241;SDS011;35079;52.704;13.814;2023-04-09T04:18:53;149.00;;;36.38;;
49241;SDS011;35079;52.704;13.814;2023-04-09T04:21:18;179.98;;;35.97;;
49241;SDS011;35079;52.704;13.814;2023-04-09T04:23:44;163.70;;;37.97;;
49241;SDS011;35079;52.704;13.814;2023-04-09T04:26:09;119.55;;;34.88;;
49241;SDS011;35079;52.704;13.814;2023-04-09T04:28:36;94.47;;;33.28;;
49241;SDS011;35079;52.704;13.814;2023-04-09T04:31:09;281.88;;;39.33;;
49241;SDS011;35079;52.704;13.814;2023-04-09T04:33:37;98.40;;;34.17;;
49241;SDS011;35079;52.704;13.814;2023-04-09T04:36:07;83.35;;;32.05;;
49241;SDS011;35079;52.704;13.814;2023-04-09T04:38:37;109.50;;;34.83;;
49241;SDS011;35079;52.704;13.814;2023-04-09T04:41:03;136.95;;;36.35;;
49241;SDS011;35079;52.704;13.814;2023-04-09T04:43:29;95.32;;;33.75;;
49241;SDS011;35079;52.704;13.814;2023-04-09T04:45:56;133.60;;;35.25;;
49241;SDS011;35079;52.704;13.814;2023-04-09T04:48:22;118.47;;;34.50;;
49241;SDS011;35079;52.704;13.814;2023-04-09T04:50:53;112.78;;;36.00;;
49241;SDS011;35079;52.704;13.814;2023-04-09T04:53:20;164.90;;;34.72;;
49241;SDS011;35079;52.704;13.814;2023-04-09T04:55:45;94.20;;;33.05;;
49241;SDS011;35079;52.704;13.814;2023-04-09T04:58:11;139.85;;;32.13;;
49241;SDS011;35079;52.704;13.814;2023-04-09T05:00:37;91.25;;;31.52;;
49241;SDS011;35079;52.704;13.814;2023-04-09T05:03:02;92.93;;;30.23;;
49241;SDS011;35079;52.704;13.814;2023-04-09T05:05:28;113.72;;;33.17;;
49241;SDS011;35079;52.704;13.814;2023-04-09T05:07:53;72.53;;;30.15;;
49241;SDS011;35079;52.704;13.814;2023-04-09T05:10:19;65.75;;;29.25;;
49241;SDS011;35079;52.704;13.814;2023-04-09T05:12:45;84.00;;;29.33;;
49241;SDS011;35079;52.704;13.814;2023-04-09T05:15:10;84.25;;;30.67;;
49241;SDS011;35079;52.704;13.814;2023-04-09T05:17:36;88.75;;;28.42;;
49241;SDS011;35079;52.704;13.814;2023-04-09T05:20:02;116.07;;;28.83;;
49241;SDS011;35079;52.704;13.814;2023-04-09T05:22:28;101.60;;;28.50;;
49241;SDS011;35079;52.704;13.814;2023-04-09T05:24:53;86.50;;;29.50;;
49241;SDS011;35079;52.704;13.814;2023-04-09T05:27:19;97.20;;;26.65;;
49241;SDS011;35079;52.704;13.814;2023-04-09T05:29:46;99.65;;;27.52;;
49241;SDS011;35079;52.704;13.814;2023-04-09T05:32:12;189.48;;;30.20;;
49241;SDS011;35079;52.704;13.814;2023-04-09T05:34:37;64.90;;;24.35;;
49241;SDS011;35079;52.704;13.814;2023-04-09T05:37:03;54.53;;;25.85;;
49241;SDS011;35079;52.704;13.814;2023-04-09T05:39:28;69.20;;;24.85;;
49241;SDS011;35079;52.704;13.814;2023-04-09T05:41:56;76.20;;;25.23;;
49241;SDS011;35079;52.704;13.814;2023-04-09T05:44:22;87.50;;;22.88;;
49241;SDS011;35079;52.704;13.814;2023-04-09T05:46:48;98.00;;;24.95;;
49241;SDS011;35079;52.704;13.814;2023-04-09T05:49:14;62.70;;;23.73;;
49241;SDS011;35079;52.704;13.814;2023-04-09T05:51:40;84.15;;;24.00;;
49241;SDS011;35079;52.704;13.814;2023-04-09T05:54:07;53.38;;;24.50;;
49241;SDS011;35079;52.704;13.814;2023-04-09T05:56:33;63.33;;;21.20;;
49241;SDS011;35079;52.704;13.814;2023-04-09T05:58:59;63.45;;;22.23;;
49241;SDS011;35079;52.704;13.814;2023-04-09T06:01:24;52.03;;;21.13;;
49241;SDS011;35079;52.704;13.814;2023-04-09T06:03:51;71.25;;;22.08;;
49241;SDS011;35079;52.704;13.814;2023-04-09T06:06:17;80.85;;;20.98;;
49241;SDS011;35079;52.704;13.814;2023-04-09T06:08:42;59.67;;;22.05;;
49241;SDS011;35079;52.704;13.814;2023-04-09T06:11:09;63.67;;;20.67;;
49241;SDS011;35079;52.704;13.814;2023-04-09T06:13:35;54.85;;;21.27;;
49241;SDS011;35079;52.704;13.814;2023-04-09T06:16:07;51.90;;;19.25;;
49241;SDS011;35079;52.704;13.814;2023-04-09T06:18:33;52.65;;;19.45;;
49241;SDS011;35079;52.704;13.814;2023-04-09T06:21:03;61.10;;;19.00;;
49241;SDS011;35079;52.704;13.814;2023-04-09T06:23:33;51.67;;;20.20;;
49241;SDS011;35079;52.704;13.814;2023-04-09T06:25:59;53.88;;;19.13;;
49241;SDS011;35079;52.704;13.814;2023-04-09T06:28:25;78.22;;;19.50;;
49241;SDS011;35079;52.704;13.814;2023-04-09T06:30:52;42.15;;;18.30;;
49241;SDS011;35079;52.704;13.814;2023-04-09T06:33:19;62.85;;;19.20;;
49241;SDS011;35079;52.704;13.814;2023-04-09T06:35:45;74.20;;;19.95;;
49241;SDS011;35079;52.704;13.814;2023-04-09T06:38:11;51.38;;;18.08;;
49241;SDS011;35079;52.704;13.814;2023-04-09T06:40:37;71.13;;;20.13;;
49241;SDS011;35079;52.704;13.814;2023-04-09T06:43:03;86.13;;;20.00;;
49241;SDS011;35079;52.704;13.814;2023-04-09T06:45:29;78.55;;;20.70;;
49241;SDS011;35079;52.704;13.814;2023-04-09T06:47:55;51.25;;;18.30;;
49241;SDS011;35079;52.704;13.814;2023-04-09T06:50:21;32.75;;;18.00;;
49241;SDS011;35079;52.704;13.814;2023-04-09T06:52:46;47.25;;;18.63;;
49241;SDS011;35079;52.704;13.814;2023-04-09T06:55:12;61.33;;;18.63;;
49241;SDS011;35079;52.704;13.814;2023-04-09T06:57:38;74.60;;;18.48;;
49241;SDS011;35079;52.704;13.814;2023-04-09T07:00:03;64.95;;;18.55;;
49241;SDS011;35079;52.704;13.814;2023-04-09T07:02:30;88.05;;;21.52;;
49241;SDS011;35079;52.704;13.814;2023-04-09T07:04:55;43.78;;;17.33;;
49241;SDS011;35079;52.704;13.814;2023-04-09T07:07:21;55.22;;;18.42;;
49241;SDS011;35079;52.704;13.814;2023-04-09T07:09:47;52.83;;;17.48;;
49241;SDS011;35079;52.704;13.814;2023-04-09T07:12:13;45.13;;;17.02;;
49241;SDS011;35079;52.704;13.814;2023-04-09T07:14:38;32.42;;;15.40;;
49241;SDS011;35079;52.704;13.814;2023-04-09T07:17:04;28.05;;;15.82;;
49241;SDS011;35079;52.704;13.814;2023-04-09T07:19:29;31.40;;;16.10;;
49241;SDS011;35079;52.704;13.814;2023-04-09T07:21:55;51.33;;;17.92;;
49241;SDS011;35079;52.704;13.814;2023-04-09T07:24:21;32.95;;;17.92;;
49241;SDS011;35079;52.704;13.814;2023-04-09T07:26:46;42.75;;;18.30;;
49241;SDS011;35079;52.704;13.814;2023-04-09T07:29:12;40.05;;;17.60;;
49241;SDS011;35079;52.704;13.814;2023-04-09T07:31:38;24.88;;;15.55;;
49241;SDS011;35079;52.704;13.814;2023-04-09T07:34:04;30.92;;;17.45;;
49241;SDS011;35079;52.704;13.814;2023-04-09T07:36:30;28.80;;;16.60;;
49241;SDS011;35079;52.704;13.814;2023-04-09T07:38:55;22.23;;;14.77;;
49241;SDS011;35079;52.704;13.814;2023-04-09T07:41:21;23.45;;;14.43;;
49241;SDS011;35079;52.704;13.814;2023-04-09T07:43:46;26.30;;;16.27;;
49241;SDS011;35079;52.704;13.814;2023-04-09T07:46:17;26.05;;;15.93;;
49241;SDS011;35079;52.704;13.814;2023-04-09T07:48:45;25.48;;;15.02;;
49241;SDS011;35079;52.704;13.814;2023-04-09T07:51:11;26.25;;;16.35;;
49241;SDS011;35079;52.704;13.814;2023-04-09T07:53:37;68.40;;;17.83;;
49241;SDS011;35079;52.704;13.814;2023-04-09T07:56:02;37.95;;;17.17;;
49241;SDS011;35079;52.704;13.814;2023-04-09T07:58:28;29.38;;;16.55;;
49241;SDS011;35079;52.704;13.814;2023-04-09T08:00:54;32.97;;;17.52;;
49241;SDS011;35079;52.704;13.814;2023-04-09T08:03:19;30.75;;;17.65;;
49241;SDS011;35079;52.704;13.814;2023-04-09T08:05:46;35.67;;;16.50;;
49241;SDS011;35079;52.704;13.814;2023-04-09T08:08:12;33.88;;;16.95;;
49241;SDS011;35079;52.704;13.814;2023-04-09T08:10:37;32.95;;;15.25;;
49241;SDS011;35079;52.704;13.814;2023-04-09T08:13:03;33.17;;;18.40;;
49241;SDS011;35079;52.704;13.814;2023-04-09T08:15:29;41.92;;;16.98;;
49241;SDS011;35079;52.704;13.814;2023-04-09T08:17:54;28.83;;;16.95;;
49241;SDS011;35079;52.704;13.814;2023-04-09T08:20:20;33.38;;;16.95;;
49241;SDS011;35079;52.704;13.814;2023-04-09T08:22:46;36.83;;;17.77;;
49241;SDS011;35079;52.704;13.814;2023-04-09T08:25:12;32.03;;;17.98;;
49241;SDS011;35079;52.704;13.814;2023-04-09T08:27:38;32.95;;;17.65;;
49241;SDS011;35079;52.704;13.814;2023-04-09T08:30:04;28.77;;;17.42;;
49241;SDS011;35079;52.704;13.814;2023-04-09T08:32:30;30.70;;;17.77;;
49241;SDS011;35079;52.704;13.814;2023-04-09T08:34:55;28.27;;;17.70;;
49241;SDS011;35079;52.704;13.814;2023-04-09T08:37:21;38.67;;;17.48;;
49241;SDS011;35079;52.704;13.814;2023-04-09T08:39:46;27.17;;;16.35;;
49241;SDS011;35079;52.704;13.814;2023-04-09T08:42:12;25.40;;;16.33;;
49241;SDS011;35079;52.704;13.814;2023-04-09T08:44:39;24.30;;;16.10;;
49241;SDS011;35079;52.704;13.814;2023-04-09T08:47:08;23.17;;;14.48;;
49241;SDS011;35079;52.704;13.814;2023-04-09T08:49:35;29.17;;;16.75;;
49241;SDS011;35079;52.704;13.814;2023-04-09T08:52:04;27.38;;;16.70;;
49241;SDS011;35079;52.704;13.814;2023-04-09T08:54:30;26.63;;;16.98;;
49241;SDS011;35079;52.704;13.814;2023-04-09T08:56:56;26.67;;;17.13;;
49241;SDS011;35079;52.704;13.814;2023-04-09T08:59:22;23.85;;;15.55;;
49241;SDS011;35079;52.704;13.814;2023-04-09T09:01:48;23.73;;;16.20;;
49241;SDS011;35079;52.704;13.814;2023-04-09T09:04:42;27.02;;;16.67;;
49241;SDS011;35079;52.704;13.814;2023-04-09T09:07:12;26.88;;;16.48;;
49241;SDS011;35079;52.704;13.814;2023-04-09T09:09:54;25.00;;;16.30;;
49241;SDS011;35079;52.704;13.814;2023-04-09T09:12:37;28.48;;;17.35;;
49241;SDS011;35079;52.704;13.814;2023-04-09T09:17:53;25.95;;;15.98;;
49241;SDS011;35079;52.704;13.814;2023-04-09T09:20:20;27.13;;;17.90;;
49241;SDS011;35079;52.704;13.814;2023-04-09T09:22:50;26.08;;;16.02;;
49241;SDS011;35079;52.704;13.814;2023-04-09T09:25:20;24.93;;;15.90;;
49241;SDS011;35079;52.704;13.814;2023-04-09T09:27:48;25.35;;;15.63;;
49241;SDS011;35079;52.704;13.814;2023-04-09T09:30:24;27.38;;;17.73;;
49241;SDS011;35079;52.704;13.814;2023-04-09T09:35:51;26.20;;;17.05;;
49241;SDS011;35079;52.704;13.814;2023-04-09T09:38:18;26.73;;;17.17;;
49241;SDS011;35079;52.704;13.814;2023-04-09T09:40:44;25.98;;;16.33;;
49241;SDS011;35079;52.704;13.814;2023-04-09T09:43:11;28.58;;;16.92;;
49241;SDS011;35079;52.704;13.814;2023-04-09T09:45:37;25.83;;;17.20;;
49241;SDS011;35079;52.704;13.814;2023-04-09T09:48:04;24.92;;;16.40;;
49241;SDS011;35079;52.704;13.814;2023-04-09T09:50:30;25.70;;;16.38;;
49241;SDS011;35079;52.704;13.814;2023-04-09T09:53:00;27.05;;;16.45;;
49241;SDS011;35079;52.704;13.814;2023-04-09T09:55:31;26.75;;;18.42;;
49241;SDS011;35079;52.704;13.814;2023-04-09T09:58:01;24.83;;;16.40;;
49241;SDS011;35079;52.704;13.814;2023-04-09T10:00:31;29.00;;;17.27;;
49241;SDS011;35079;52.704;13.814;2023-04-09T10:02:58;28.20;;;17.92;;
49241;SDS011;35079;52.704;13.814;2023-04-09T10:05:34;26.58;;;16.98;;
49241;SDS011;35079;52.704;13.814;2023-04-09T10:08:03;24.45;;;15.77;;
49241;SDS011;35079;52.704;13.814;2023-04-09T10:10:28;27.85;;;17.70;;
49241;SDS011;35079;52.704;13.814;2023-04-09T10:12:57;23.80;;;15.63;;
49241;SDS011;35079;52.704;13.814;2023-04-09T10:15:23;27.80;;;17.30;;
49241;SDS011;35079;52.704;13.814;2023-04-09T10:17:49;24.10;;;16.00;;
49241;SDS011;35079;52.704;13.814;2023-04-09T10:20:17;27.88;;;17.25;;
49241;SDS011;35079;52.704;13.814;2023-04-09T10:22:48;24.33;;;16.75;;
49241;SDS011;35079;52.704;13.814;2023-04-09T10:25:15;24.60;;;15.88;;
49241;SDS011;35079;52.704;13.814;2023-04-09T10:27:42;24.30;;;16.33;;
49241;SDS011;35079;52.704;13.814;2023-04-09T10:30:32;26.52;;;17.73;;
49241;SDS011;35079;52.704;13.814;2023-04-09T10:33:10;26.75;;;17.13;;
49241;SDS011;35079;52.704;13.814;2023-04-09T10:35:40;26.88;;;17.52;;
49241;SDS011;35079;52.704;13.814;2023-04-09T10:38:08;29.85;;;18.70;;
49241;SDS011;35079;52.704;13.814;2023-04-09T10:40:55;25.52;;;17.48;;
49241;SDS011;35079;52.704;13.814;2023-04-09T10:43:20;25.70;;;16.48;;
49241;SDS011;35079;52.704;13.814;2023-04-09T10:45:47;26.40;;;16.92;;
49241;SDS011;35079;52.704;13.814;2023-04-09T10:48:18;26.55;;;17.92;;
49241;SDS011;35079;52.704;13.814;2023-04-09T10:50:45;24.48;;;16.73;;
49241;SDS011;35079;52.704;13.814;2023-04-09T10:53:25;23.15;;;15.68;;
49241;SDS011;35079;52.704;13.814;2023-04-09T10:55:51;27.92;;;18.15;;
49241;SDS011;35079;52.704;13.814;2023-04-09T10:58:18;25.98;;;17.25;;
49241;SDS011;35079;52.704;13.814;2023-04-09T11:00:47;24.10;;;16.50;;
49241;SDS011;35079;52.704;13.814;2023-04-09T11:03:21;25.45;;;17.05;;
49241;SDS011;35079;52.704;13.814;2023-04-09T11:05:50;26.70;;;17.73;;
49241;SDS011;35079;52.704;13.814;2023-04-09T11:08:32;25.52;;;16.88;;
49241;SDS011;35079;52.704;13.814;2023-04-09T11:10:59;28.58;;;18.48;;
49241;SDS011;35079;52.704;13.814;2023-04-09T11:13:25;27.40;;;18.70;;
49241;SDS011;35079;52.704;13.814;2023-04-09T11:15:52;25.20;;;17.27;;
49241;SDS011;35079;52.704;13.814;2023-04-09T11:18:22;24.50;;;17.08;;
49241;SDS011;35079;52.704;13.814;2023-04-09T11:20:59;25.38;;;18.15;;
49241;SDS011;35079;52.704;13.814;2023-04-09T11:23:27;23.95;;;16.77;;
49241;SDS011;35079;52.704;13.814;2023-04-09T11:25:53;25.52;;;18.25;;
49241;SDS011;35079;52.704;13.814;2023-04-09T11:28:20;26.85;;;19.17;;
49241;SDS011;35079;52.704;13.814;2023-04-09T11:30:49;27.27;;;18.60;;
49241;SDS011;35079;52.704;13.814;2023-04-09T11:33:15;26.42;;;18.42;;
49241;SDS011;35079;52.704;13.814;2023-04-09T11:35:40;25.98;;;18.20;;
49241;SDS011;35079;52.704;13.814;2023-04-09T11:38:07;25.55;;;18.10;;
49241;SDS011;35079;52.704;13.814;2023-04-09T11:40:34;25.58;;;17.00;;
49241;SDS011;35079;52.704;13.814;2023-04-09T11:43:00;26.98;;;18.83;;
49241;SDS011;35079;52.704;13.814;2023-04-09T11:45:27;25.73;;;18.70;;
49241;SDS011;35079;52.704;13.814;2023-04-09T11:47:54;24.92;;;18.38;;
49241;SDS011;35079;52.704;13.814;2023-04-09T11:50:20;26.17;;;17.42;;
49241;SDS011;35079;52.704;13.814;2023-04-09T11:52:47;25.73;;;18.23;;
49241;SDS011;35079;52.704;13.814;2023-04-09T11:55:27;22.13;;;16.17;;
49241;SDS011;35079;52.704;13.814;2023-04-09T11:57:56;23.75;;;17.50;;
49241;SDS011;35079;52.704;13.814;2023-04-09T12:00:24;21.40;;;16.48;;
49241;SDS011;35079;52.704;13.814;2023-04-09T12:02:57;24.40;;;17.45;;
49241;SDS011;35079;52.704;13.814;2023-04-09T12:05:26;25.73;;;18.33;;
49241;SDS011;35079;52.704;13.814;2023-04-09T12:07:57;24.85;;;17.52;;
49241;SDS011;35079;52.704;13.814;2023-04-09T12:10:25;24.23;;;17.88;;
49241;SDS011;35079;52.704;13.814;2023-04-09T12:12:53;23.35;;;16.60;;
49241;SDS011;35079;52.704;13.814;2023-04-09T12:15:22;20.95;;;16.08;;
49241;SDS011;35079;52.704;13.814;2023-04-09T12:17:53;20.48;;;16.40;;
49241;SDS011;35079;52.704;13.814;2023-04-09T12:20:26;21.15;;;15.68;;
49241;SDS011;35079;52.704;13.814;2023-04-09T12:22:53;17.90;;;14.93;;
49241;SDS011;35079;52.704;13.814;2023-04-09T12:25:19;21.52;;;16.40;;
49241;SDS011;35079;52.704;13.814;2023-04-09T12:27:45;22.02;;;17.05;;
49241;SDS011;35079;52.704;13.814;2023-04-09T12:30:10;22.73;;;17.58;;
49241;SDS011;35079;52.704;13.814;2023-04-09T12:32:36;20.10;;;15.80;;
49241;SDS011;35079;52.704;13.814;2023-04-09T12:35:02;19.58;;;15.18;;
49241;SDS011;35079;52.704;13.814;2023-04-09T12:37:28;24.17;;;18.42;;
49241;SDS011;35079;52.704;13.814;2023-04-09T12:39:54;22.67;;;17.25;;
49241;SDS011;35079;52.704;13.814;2023-04-09T12:42:20;23.70;;;17.13;;
49241;SDS011;35079;52.704;13.814;2023-04-09T12:44:46;23.80;;;18.35;;
49241;SDS011;35079;52.704;13.814;2023-04-09T12:47:11;23.77;;;17.77;;
49241;SDS011;35079;52.704;13.814;2023-04-09T12:49:37;21.83;;;16.92;;
49241;SDS011;35079;52.704;13.814;2023-04-09T12:52:03;23.98;;;17.63;;
49241;SDS011;35079;52.704;13.814;2023-04-09T12:54:29;23.85;;;17.90;;
49241;SDS011;35079;52.704;13.814;2023-04-09T12:56:55;23.58;;;17.65;;
49241;SDS011;35079;52.704;13.814;2023-04-09T12:59:20;22.60;;;17.33;;
49241;SDS011;35079;52.704;13.814;2023-04-09T13:01:46;24.33;;;17.90;;
49241;SDS011;35079;52.704;13.814;2023-04-09T13:04:12;23.52;;;17.25;;
49241;SDS011;35079;52.704;13.814;2023-04-09T13:06:37;22.73;;;17.33;;
49241;SDS011;35079;52.704;13.814;2023-04-09T13:09:03;22.23;;;16.85;;
49241;SDS011;35079;52.704;13.814;2023-04-09T13:11:29;23.40;;;17.27;;
49241;SDS011;35079;52.704;13.814;2023-04-09T13:13:54;23.40;;;17.23;;
49241;SDS011;35079;52.704;13.814;2023-04-09T13:16:20;22.50;;;16.80;;
49241;SDS011;35079;52.704;13.814;2023-04-09T13:18:46;21.67;;;16.77;;
49241;SDS011;35079;52.704;13.814;2023-04-09T13:21:11;34.42;;;22.23;;
49241;SDS011;35079;52.704;13.814;2023-04-09T13:23:42;23.30;;;17.25;;
49241;SDS011;35079;52.704;13.814;2023-04-09T13:26:08;21.30;;;16.80;;
49241;SDS011;35079;52.704;13.814;2023-04-09T13:28:34;22.08;;;16.95;;
49241;SDS011;35079;52.704;13.814;2023-04-09T13:31:00;21.58;;;16.63;;
49241;SDS011;35079;52.704;13.814;2023-04-09T13:33:26;35.10;;;24.88;;
49241;SDS011;35079;52.704;13.814;2023-04-09T13:35:52;18.73;;;14.95;;
49241;SDS011;35079;52.704;13.814;2023-04-09T13:38:18;18.50;;;15.32;;
49241;SDS011;35079;52.704;13.814;2023-04-09T13:40:43;19.40;;;16.20;;
49241;SDS011;35079;52.704;13.814;2023-04-09T13:43:10;18.20;;;15.95;;
49241;SDS011;35079;52.704;13.814;2023-04-09T13:45:35;18.38;;;15.57;;
49241;SDS011;35079;52.704;13.814;2023-04-09T13:48:01;17.92;;;14.70;;
49241;SDS011;35079;52.704;13.814;2023-04-09T13:50:26;17.40;;;15.38;;
49241;SDS011;35079;52.704;13.814;2023-04-09T13:52:52;19.70;;;16.45;;
49241;SDS011;35079;52.704;13.814;2023-04-09T13:55:18;20.70;;;17.48;;
49241;SDS011;35079;52.704;13.814;2023-04-09T13:57:44;20.63;;;16.65;;
49241;SDS011;35079;52.704;13.814;2023-04-09T14:00:10;20.75;;;17.25;;
49241;SDS011;35079;52.704;13.814;2023-04-09T14:02:36;25.02;;;20.70;;
49241;SDS011;35079;52.704;13.814;2023-04-09T14:05:01;22.73;;;18.52;;
49241;SDS011;35079;52.704;13.814;2023-04-09T14:07:28;22.27;;;16.92;;
49241;SDS011;35079;52.704;13.814;2023-04-09T14:09:53;23.67;;;17.98;;
49241;SDS011;35079;52.704;13.814;2023-04-09T14:12:19;21.02;;;16.90;;
49241;SDS011;35079;52.704;13.814;2023-04-09T14:14:45;24.02;;;17.15;;
49241;SDS011;35079;52.704;13.814;2023-04-09T14:17:10;23.58;;;18.05;;
49241;SDS011;35079;52.704;13.814;2023-04-09T14:19:36;21.92;;;16.95;;
49241;SDS011;35079;52.704;13.814;2023-04-09T14:22:03;19.02;;;15.63;;